createdAt,value
2018-05-31T00:01:32.530Z,18.10
2018-05-31T00:04:06.133Z,18.10
2018-05-31T00:06:40.436Z,18.30
2018-05-31T00:09:14.447Z,18.30
2018-05-31T00:11:48.807Z,18.30
2018-05-31T00:14:23.385Z,18.40
2018-05-31T00:16:57.675Z,18.30
2018-05-31T00:19:32.536Z,18.40
2018-05-31T00:22:07.102Z,18.30
2018-05-31T00:24:40.751Z,18.30
2018-05-31T00:27:14.770Z,18.30
2018-05-31T00:29:48.886Z,18.40
2018-05-31T00:32:24.088Z,18.30
2018-05-31T00:34:59.470Z,18.30
2018-05-31T00:37:33.254Z,18.30
2018-05-31T00:40:07.160Z,18.20
2018-05-31T00:42:42.212Z,18.30
2018-05-31T00:45:16.378Z,18.20
2018-05-31T00:47:51.113Z,18.10
2018-05-31T00:50:24.832Z,18.00
2018-05-31T00:52:58.727Z,18.10
2018-05-31T00:55:45.202Z,18.10
2018-05-31T00:58:19.921Z,18.00
2018-05-31T01:00:53.781Z,18.00
2018-05-31T01:03:28.316Z,17.90
2018-05-31T01:06:02.522Z,17.90
2018-05-31T01:08:36.120Z,17.90
2018-05-31T01:11:11.294Z,17.90
2018-05-31T01:13:45.047Z,17.90
2018-05-31T01:16:21.316Z,17.70
2018-05-31T01:18:54.929Z,17.70
2018-05-31T01:21:29.553Z,17.60
2018-05-31T01:24:03.851Z,17.60
2018-05-31T01:26:38.485Z,17.60
2018-05-31T01:29:13.539Z,17.40
2018-05-31T01:31:48.478Z,17.20
2018-05-31T01:34:23.477Z,17.10
2018-05-31T01:36:58.818Z,17.10
2018-05-31T01:39:34.013Z,17.10
2018-05-31T01:42:09.631Z,17.00
2018-05-31T01:44:44.060Z,16.90
2018-05-31T01:47:18.951Z,16.80
2018-05-31T01:49:53.578Z,16.80
2018-05-31T01:52:27.787Z,16.80
2018-05-31T01:55:03.541Z,16.80
2018-05-31T01:57:40.926Z,16.80
2018-05-31T02:00:15.239Z,16.80
2018-05-31T02:02:49.656Z,16.90
2018-05-31T02:05:24.086Z,16.80
2018-05-31T02:07:58.217Z,16.80
2018-05-31T02:10:32.295Z,16.80
2018-05-31T02:13:07.553Z,16.80
2018-05-31T02:15:42.215Z,16.70
2018-05-31T02:18:17.195Z,16.70
2018-05-31T02:20:51.549Z,16.70
2018-05-31T02:23:26.049Z,16.60
2018-05-31T02:26:02.211Z,16.60
2018-05-31T02:28:37.326Z,16.60
2018-05-31T02:31:14.106Z,16.50
2018-05-31T02:33:50.887Z,16.50
2018-05-31T02:36:26.966Z,16.60
2018-05-31T02:39:01.963Z,16.50
2018-05-31T02:41:36.892Z,16.40
2018-05-31T02:44:10.730Z,16.40
2018-05-31T02:46:45.231Z,16.40
2018-05-31T02:49:19.863Z,16.40
2018-05-31T02:51:55.804Z,16.30
2018-05-31T02:54:33.390Z,16.40
2018-05-31T02:57:08.123Z,16.40
2018-05-31T02:59:43.376Z,16.40
2018-05-31T03:02:17.679Z,16.30
2018-05-31T03:04:52.701Z,16.20
2018-05-31T03:07:27.434Z,16.20
2018-05-31T03:10:01.541Z,16.20
2018-05-31T03:12:35.327Z,16.20
2018-05-31T03:15:10.483Z,16.10
2018-05-31T03:17:44.559Z,16.10
2018-05-31T03:20:18.301Z,16.20
2018-05-31T03:22:51.971Z,16.10
2018-05-31T03:25:26.024Z,16.00
2018-05-31T03:28:00.632Z,15.70
2018-05-31T03:30:39.668Z,15.80
2018-05-31T03:33:15.717Z,15.90
2018-05-31T03:35:49.570Z,15.80
2018-05-31T03:38:24.046Z,15.80
2018-05-31T03:40:59.897Z,15.70
2018-05-31T03:43:33.900Z,15.70
2018-05-31T03:46:08.929Z,15.60
2018-05-31T03:48:42.632Z,15.60
2018-05-31T03:51:18.491Z,15.50
2018-05-31T03:53:52.708Z,15.40
2018-05-31T03:56:27.446Z,15.50
2018-05-31T03:59:01.548Z,15.50
2018-05-31T04:01:36.246Z,15.40
2018-05-31T04:04:10.174Z,15.40
2018-05-31T04:06:44.178Z,15.60
2018-05-31T04:09:19.258Z,15.70
2018-05-31T04:11:54.243Z,15.70
2018-05-31T04:14:28.579Z,15.70
2018-05-31T04:17:02.542Z,15.80
2018-05-31T04:19:37.807Z,15.70
2018-05-31T04:22:12.015Z,15.70
2018-05-31T04:24:46.851Z,15.80
2018-05-31T04:27:20.551Z,15.80
2018-05-31T04:29:55.898Z,15.90
2018-05-31T04:32:30.841Z,16.00
2018-05-31T04:35:05.879Z,15.80
2018-05-31T04:37:40.791Z,15.90
2018-05-31T04:40:16.454Z,16.10
2018-05-31T04:42:51.168Z,16.00
2018-05-31T04:45:26.724Z,16.10
2018-05-31T04:48:00.635Z,16.10
2018-05-31T04:50:35.452Z,16.30
2018-05-31T04:53:09.845Z,16.20
2018-05-31T04:55:44.695Z,16.20
2018-05-31T04:58:18.601Z,16.20
2018-05-31T05:00:52.401Z,16.20
2018-05-31T05:03:27.651Z,16.30
2018-05-31T05:06:01.662Z,16.20
2018-05-31T05:08:36.382Z,16.30
2018-05-31T05:11:10.331Z,16.20
2018-05-31T05:13:45.202Z,16.30
2018-05-31T05:16:19.941Z,16.40
2018-05-31T05:18:54.863Z,16.50
2018-05-31T05:21:28.804Z,16.50
2018-05-31T05:24:02.685Z,16.60
2018-05-31T05:26:37.169Z,16.80
2018-05-31T05:29:10.813Z,16.80
2018-05-31T05:31:46.455Z,16.80
2018-05-31T05:34:21.168Z,16.90
2018-05-31T05:36:57.846Z,17.00
2018-05-31T05:39:31.646Z,17.00
2018-05-31T05:42:07.145Z,17.20
2018-05-31T05:44:40.803Z,17.20
2018-05-31T05:47:15.185Z,17.40
2018-05-31T05:49:48.894Z,17.40
2018-05-31T05:52:22.829Z,17.60
2018-05-31T05:54:57.786Z,17.70
2018-05-31T05:57:32.056Z,17.80
2018-05-31T06:00:05.727Z,17.80
2018-05-31T06:02:40.298Z,18.00
2018-05-31T06:05:16.782Z,18.00
2018-05-31T06:07:51.317Z,18.10
2018-05-31T06:10:25.308Z,18.10
2018-05-31T06:12:59.605Z,18.20
2018-05-31T06:15:34.258Z,18.30
2018-05-31T06:18:09.077Z,18.30
2018-05-31T06:20:42.877Z,18.40
2018-05-31T06:23:18.814Z,18.50
2018-05-31T06:25:54.367Z,18.70
2018-05-31T06:28:28.098Z,18.70
2018-05-31T06:31:02.916Z,18.80
2018-05-31T06:33:37.147Z,18.80
2018-05-31T06:36:11.120Z,18.90
2018-05-31T06:38:46.876Z,19.00
2018-05-31T06:41:20.620Z,19.00
2018-05-31T06:43:55.537Z,19.20
2018-05-31T06:46:30.119Z,19.30
2018-05-31T06:49:03.933Z,19.20
2018-05-31T06:51:37.726Z,19.40
2018-05-31T06:54:12.695Z,19.50
2018-05-31T06:56:46.358Z,19.50
2018-05-31T06:59:20.000Z,19.60
2018-05-31T07:01:54.594Z,19.80
2018-05-31T07:04:28.498Z,19.80
2018-05-31T07:07:04.469Z,20.00
2018-05-31T07:09:38.779Z,20.10
2018-05-31T07:12:12.866Z,20.20
2018-05-31T07:14:48.110Z,20.40
2018-05-31T07:17:25.390Z,20.40
2018-05-31T07:19:59.019Z,20.50
2018-05-31T07:22:33.726Z,20.50
2018-05-31T07:25:07.924Z,20.60
2018-05-31T07:27:41.861Z,20.50
2018-05-31T07:30:16.304Z,20.50
2018-05-31T07:32:50.882Z,20.70
2018-05-31T07:35:25.924Z,21.00
2018-05-31T07:38:00.030Z,20.90
2018-05-31T07:40:34.425Z,21.20
2018-05-31T07:43:09.296Z,21.30
2018-05-31T07:45:43.534Z,21.30
2018-05-31T07:48:18.315Z,21.40
2018-05-31T07:50:52.849Z,21.40
2018-05-31T07:53:28.587Z,21.40
2018-05-31T07:56:06.597Z,21.50
2018-05-31T07:58:40.514Z,21.50
2018-05-31T08:01:14.519Z,21.60
2018-05-31T08:03:48.426Z,21.70
2018-05-31T08:06:25.059Z,22.20
2018-05-31T08:08:59.727Z,22.10
2018-05-31T08:11:33.575Z,22.10
2018-05-31T08:14:08.755Z,22.30
2018-05-31T08:16:43.897Z,22.60
2018-05-31T08:19:17.496Z,22.60
2018-05-31T08:21:53.437Z,22.60
2018-05-31T08:24:28.828Z,22.70
2018-05-31T08:27:03.205Z,22.90
2018-05-31T08:29:37.833Z,23.70
2018-05-31T08:32:11.786Z,23.60
2018-05-31T08:34:46.062Z,23.80
2018-05-31T08:37:19.869Z,23.80
2018-05-31T08:39:55.614Z,23.70
2018-05-31T08:42:29.403Z,24.10
2018-05-31T08:45:04.236Z,24.80
2018-05-31T08:47:39.057Z,25.30
2018-05-31T08:50:13.485Z,25.30
2018-05-31T08:52:47.955Z,25.70
2018-05-31T08:55:22.340Z,25.70
2018-05-31T08:57:57.360Z,25.50
2018-05-31T09:00:31.359Z,25.80
2018-05-31T09:03:05.507Z,26.30
2018-05-31T09:05:39.990Z,27.10
2018-05-31T09:08:16.580Z,27.50
2018-05-31T09:10:52.056Z,27.60
2018-05-31T09:13:26.831Z,27.60
2018-05-31T09:16:00.646Z,28.20
2018-05-31T09:18:34.866Z,28.40
2018-05-31T09:21:08.862Z,28.40
2018-05-31T09:23:44.928Z,27.80
2018-05-31T09:26:19.543Z,27.20
2018-05-31T09:28:55.240Z,28.00
2018-05-31T09:31:30.123Z,28.50
2018-05-31T09:34:05.714Z,28.90
2018-05-31T09:36:40.388Z,28.30
2018-05-31T09:39:15.290Z,27.70
2018-05-31T09:41:49.322Z,27.70
2018-05-31T09:44:24.273Z,28.50
2018-05-31T09:46:59.007Z,28.50
2018-05-31T09:49:34.020Z,28.90
2018-05-31T09:52:09.360Z,29.20
2018-05-31T09:54:43.997Z,29.20
2018-05-31T09:57:17.990Z,29.30
2018-05-31T09:59:52.518Z,29.60
2018-05-31T10:02:27.344Z,29.60
2018-05-31T10:05:01.069Z,29.90
2018-05-31T10:07:34.815Z,30.20
2018-05-31T10:10:10.002Z,30.10
2018-05-31T10:12:44.270Z,30.10
2018-05-31T10:15:18.649Z,30.10
2018-05-31T10:31:04.230Z,29.60
2018-05-31T10:33:37.983Z,29.60
2018-05-31T10:36:11.696Z,29.10
2018-05-31T10:38:47.017Z,28.00
2018-05-31T10:41:20.830Z,28.00
2018-05-31T10:43:55.372Z,28.90
2018-05-31T10:46:30.011Z,29.50
2018-05-31T10:49:04.571Z,29.60
2018-05-31T10:51:40.038Z,29.50
2018-05-31T10:54:13.952Z,30.00
2018-05-31T10:56:48.486Z,28.40
2018-05-31T10:59:22.992Z,28.60
2018-05-31T11:01:57.296Z,27.80
2018-05-31T11:04:30.987Z,27.80
2018-05-31T11:07:05.042Z,28.40
2018-05-31T11:09:39.641Z,29.20
2018-05-31T11:12:14.738Z,29.50
2018-05-31T11:14:48.208Z,29.50
2018-05-31T11:17:21.891Z,28.40
2018-05-31T11:19:55.883Z,28.50
2018-05-31T11:22:29.680Z,29.10
2018-05-31T11:25:04.210Z,30.20
2018-05-31T11:27:38.827Z,30.80
2018-05-31T11:30:12.833Z,30.80
2018-05-31T11:32:47.571Z,30.60
2018-05-31T11:35:21.101Z,30.70
2018-05-31T11:37:55.498Z,30.80
2018-05-31T11:40:29.608Z,30.80
2018-05-31T11:43:03.559Z,31.70
2018-05-31T11:45:37.061Z,32.00
2018-05-31T11:48:11.509Z,30.30
2018-05-31T11:50:45.324Z,30.20
2018-05-31T11:53:19.231Z,31.20
2018-05-31T11:55:53.097Z,29.40
2018-05-31T11:58:27.120Z,30.50
2018-05-31T12:01:00.810Z,31.20
2018-05-31T12:03:35.109Z,31.90
2018-05-31T12:06:08.764Z,32.30
2018-05-31T12:08:42.764Z,31.20
2018-05-31T12:11:17.271Z,32.50
2018-05-31T12:13:51.092Z,32.50
2018-05-31T12:16:26.035Z,32.80
2018-05-31T12:19:00.565Z,33.50
2018-05-31T12:21:35.059Z,34.80
2018-05-31T12:24:09.576Z,35.80
2018-05-31T12:26:44.330Z,36.00
2018-05-31T12:29:18.635Z,34.40
2018-05-31T12:31:53.706Z,34.60
2018-05-31T12:34:28.597Z,34.70
2018-05-31T12:37:03.106Z,33.20
2018-05-31T12:39:37.831Z,32.30
2018-05-31T12:42:11.775Z,32.20
2018-05-31T12:44:45.963Z,32.60
2018-05-31T12:47:20.472Z,34.00
2018-05-31T12:49:54.351Z,34.00
2018-05-31T12:52:28.784Z,34.20
2018-05-31T12:55:03.427Z,34.90
2018-05-31T12:57:37.971Z,36.00
2018-05-31T13:00:11.958Z,35.90
2018-05-31T13:02:46.234Z,35.90
2018-05-31T13:05:20.165Z,37.00
2018-05-31T13:07:54.312Z,37.80
2018-05-31T13:10:28.885Z,39.50
2018-05-31T13:13:03.429Z,39.30
2018-05-31T13:15:38.226Z,39.10
2018-05-31T13:18:11.965Z,39.10
2018-05-31T13:20:46.601Z,40.50
2018-05-31T13:23:20.507Z,40.50
2018-05-31T13:25:54.539Z,38.70
2018-05-31T13:28:28.437Z,39.00
2018-05-31T13:31:02.409Z,36.30
2018-05-31T13:33:36.232Z,34.40
2018-05-31T13:36:09.935Z,35.00
2018-05-31T13:38:45.583Z,34.90
2018-05-31T13:41:19.473Z,36.60
2018-05-31T13:43:53.297Z,36.70
2018-05-31T13:46:27.520Z,36.10
2018-05-31T13:49:01.307Z,36.50
2018-05-31T13:51:35.379Z,36.80
2018-05-31T13:54:08.923Z,36.30
2018-05-31T13:56:43.434Z,36.00
2018-05-31T13:59:17.272Z,36.00
2018-05-31T14:01:50.946Z,36.10
2018-05-31T14:04:24.871Z,37.50
2018-05-31T14:06:58.948Z,36.90
2018-05-31T14:09:33.486Z,33.40
2018-05-31T14:12:07.481Z,33.30
2018-05-31T14:14:41.084Z,33.80
2018-05-31T14:17:15.001Z,33.00
2018-05-31T14:19:49.204Z,32.10
2018-05-31T14:22:22.909Z,29.70
2018-05-31T14:24:56.535Z,29.00
2018-05-31T14:27:30.162Z,29.50
2018-05-31T14:30:04.758Z,29.70
2018-05-31T14:32:38.739Z,29.70
2018-05-31T14:35:13.876Z,30.60
2018-05-31T14:37:48.604Z,30.30
2018-05-31T14:40:23.035Z,30.10
2018-05-31T14:42:56.802Z,30.00
2018-05-31T14:45:31.177Z,30.30
2018-05-31T14:48:04.965Z,30.30
2018-05-31T14:50:39.590Z,30.80
2018-05-31T14:53:14.763Z,31.00
2018-05-31T14:55:48.727Z,31.00
2018-05-31T14:58:23.977Z,30.30
2018-05-31T15:00:57.469Z,30.30
2018-05-31T15:03:31.680Z,30.30
2018-05-31T15:06:05.667Z,30.10
2018-05-31T15:08:39.686Z,30.50
2018-05-31T15:11:14.887Z,29.80
2018-05-31T15:13:49.021Z,29.30
2018-05-31T15:16:23.035Z,29.10
2018-05-31T15:18:57.146Z,28.60
2018-05-31T15:21:30.922Z,28.20
2018-05-31T15:24:04.633Z,28.00
2018-05-31T15:26:38.477Z,27.80
2018-05-31T15:29:12.369Z,27.90
2018-05-31T15:31:47.867Z,27.70
2018-05-31T15:34:21.759Z,27.70
2018-05-31T15:36:55.757Z,27.60
2018-05-31T15:39:29.443Z,27.10
2018-05-31T15:42:03.906Z,27.00
2018-05-31T15:44:37.553Z,27.00
2018-05-31T15:47:11.156Z,27.10
2018-05-31T15:49:45.153Z,27.30
2018-05-31T15:52:18.858Z,27.30
2018-05-31T15:54:52.511Z,27.20
2018-05-31T15:57:27.302Z,26.50
2018-05-31T16:00:01.702Z,26.30
2018-05-31T16:02:36.675Z,26.30
2018-05-31T16:05:10.357Z,26.20
2018-05-31T16:07:47.050Z,26.60
2018-05-31T16:10:20.922Z,26.50
2018-05-31T16:12:55.121Z,26.40
2018-05-31T16:15:28.993Z,26.10
2018-05-31T16:18:03.660Z,25.80
2018-05-31T16:20:37.772Z,25.80
2018-05-31T16:23:11.782Z,26.00
2018-05-31T16:25:45.486Z,25.90
2018-05-31T16:28:19.901Z,25.70
2018-05-31T16:30:53.911Z,25.70
2018-05-31T16:33:27.920Z,25.80
2018-05-31T16:36:02.946Z,26.10
2018-05-31T16:38:37.058Z,26.00
2018-05-31T16:41:10.985Z,26.40
2018-05-31T16:43:45.072Z,26.20
2018-05-31T16:46:18.562Z,26.20
2018-05-31T16:48:52.977Z,26.20
2018-05-31T16:51:27.431Z,26.50
2018-05-31T16:54:01.336Z,26.40
2018-05-31T16:56:35.758Z,25.90
2018-05-31T16:59:11.080Z,26.00
2018-05-31T17:01:45.111Z,26.00
2018-05-31T17:04:18.707Z,26.60
2018-05-31T17:06:52.715Z,27.30
2018-05-31T17:09:28.447Z,28.20
2018-05-31T17:12:02.260Z,29.30
2018-05-31T17:14:36.772Z,29.60
2018-05-31T17:17:10.798Z,29.50
2018-05-31T17:19:44.979Z,30.70
2018-05-31T17:22:19.411Z,30.60
2018-05-31T17:24:54.594Z,29.70
2018-05-31T17:27:28.438Z,29.70
2018-05-31T17:30:02.877Z,27.60
2018-05-31T17:32:37.194Z,27.50
2018-05-31T17:35:10.883Z,26.90
2018-05-31T17:37:45.047Z,26.40
2018-05-31T17:40:19.717Z,26.30
2018-05-31T17:42:53.485Z,26.30
2018-05-31T17:45:27.621Z,25.70
2018-05-31T17:48:02.061Z,25.60
2018-05-31T17:50:36.834Z,25.60
2018-05-31T17:53:10.571Z,25.60
2018-05-31T17:55:45.721Z,25.50
2018-05-31T17:58:19.561Z,25.40
2018-05-31T18:00:54.143Z,25.50
2018-05-31T18:03:28.588Z,25.50
2018-05-31T18:06:02.588Z,25.40
2018-05-31T18:08:36.223Z,25.40
2018-05-31T18:11:10.219Z,25.20
2018-05-31T18:13:45.442Z,24.80
2018-05-31T18:16:19.942Z,24.80
2018-05-31T18:18:55.003Z,24.70
2018-05-31T18:21:28.902Z,24.70
2018-05-31T18:24:03.845Z,24.60
2018-05-31T18:26:38.771Z,24.50
2018-05-31T18:29:13.153Z,24.50
2018-05-31T18:31:48.120Z,24.20
2018-05-31T18:34:22.202Z,24.10
2018-05-31T18:36:56.935Z,24.30
2018-05-31T18:39:31.461Z,24.40
2018-05-31T18:42:05.582Z,24.30
2018-05-31T18:44:39.588Z,24.30
2018-05-31T18:47:13.389Z,24.30
2018-05-31T18:49:48.178Z,24.10
2018-05-31T18:52:21.860Z,24.00
2018-05-31T18:54:55.723Z,23.90
2018-05-31T18:57:30.244Z,23.80
2018-05-31T19:00:05.138Z,23.80
2018-05-31T19:02:39.810Z,23.80
2018-05-31T19:05:14.681Z,23.90
2018-05-31T19:07:49.139Z,23.90
2018-05-31T19:10:22.757Z,23.90
2018-05-31T19:13:02.165Z,23.90
2018-05-31T19:15:36.167Z,23.90
2018-05-31T19:18:16.297Z,23.70
2018-05-31T19:20:50.072Z,23.70
2018-05-31T19:23:23.877Z,23.50
2018-05-31T19:25:58.463Z,22.90
2018-05-31T19:28:32.174Z,22.90
2018-05-31T19:31:11.966Z,22.80
2018-05-31T19:33:49.057Z,22.70
2018-05-31T19:36:33.371Z,22.60
2018-05-31T19:39:07.496Z,22.60
2018-05-31T19:41:41.147Z,22.60
2018-05-31T19:44:21.454Z,22.40
2018-05-31T19:46:56.137Z,22.50
2018-05-31T19:49:30.005Z,22.50
2018-05-31T19:52:09.607Z,22.30
2018-05-31T19:54:43.688Z,22.30
2018-05-31T19:57:17.836Z,22.30
2018-05-31T19:59:57.968Z,21.90
2018-05-31T20:02:38.279Z,22.00
2018-05-31T20:05:12.952Z,22.00
2018-05-31T20:07:47.470Z,22.00
2018-05-31T20:10:21.072Z,21.90
2018-05-31T20:12:54.954Z,22.00
2018-05-31T20:15:29.615Z,21.80
2018-05-31T20:18:03.531Z,21.70
2018-05-31T20:20:38.364Z,21.80
2018-05-31T20:23:12.204Z,21.70
2018-05-31T20:25:45.940Z,21.80
2018-05-31T20:28:31.131Z,21.90
2018-05-31T20:31:05.974Z,21.80
2018-05-31T20:33:40.283Z,21.70
2018-05-31T20:36:14.065Z,21.70
2018-05-31T20:38:48.870Z,21.70
2018-05-31T20:41:23.446Z,21.70
2018-05-31T20:43:58.237Z,21.70
2018-05-31T20:46:32.836Z,21.80
2018-05-31T20:49:07.510Z,21.70
2018-05-31T20:51:41.195Z,21.70
2018-05-31T20:54:16.496Z,21.80
2018-05-31T20:56:49.945Z,21.70
2018-05-31T20:59:24.036Z,21.80
2018-05-31T21:01:58.312Z,21.80
2018-05-31T21:04:32.789Z,21.80
2018-05-31T21:07:07.189Z,21.80
2018-05-31T21:09:40.931Z,21.80
2018-05-31T21:12:20.284Z,21.80
2018-05-31T21:14:55.153Z,21.70
2018-05-31T21:17:29.505Z,21.70
2018-05-31T21:20:04.015Z,21.70
2018-05-31T21:22:38.302Z,21.50
2018-05-31T21:25:12.052Z,21.50
2018-05-31T21:27:47.188Z,21.50
2018-05-31T21:30:20.977Z,21.40
2018-05-31T21:32:56.921Z,21.40
2018-05-31T21:35:31.082Z,21.30
2018-05-31T21:38:05.747Z,21.50
2018-05-31T21:40:40.062Z,21.40
2018-05-31T21:43:13.833Z,21.40
2018-05-31T21:45:48.982Z,20.80
2018-05-31T21:48:22.724Z,20.80
2018-05-31T21:50:57.811Z,20.50
2018-05-31T21:53:31.542Z,20.20
2018-05-31T21:56:06.380Z,19.90
2018-05-31T21:58:39.960Z,19.90
2018-05-31T22:01:15.403Z,19.80
2018-05-31T22:03:50.041Z,20.10
2018-05-31T22:06:24.015Z,20.00
2018-05-31T22:08:57.539Z,19.90
2018-05-31T22:11:32.101Z,18.20
2018-05-31T22:14:06.347Z,18.20
2018-05-31T22:16:40.028Z,17.80
2018-05-31T22:19:14.848Z,17.60
2018-05-31T22:21:48.704Z,17.50
2018-05-31T22:24:23.890Z,17.20
2018-05-31T22:26:58.571Z,16.70
2018-05-31T22:29:32.987Z,16.40
2018-05-31T22:32:07.350Z,16.30
2018-05-31T22:34:41.128Z,16.20
2018-05-31T22:37:17.651Z,16.10
2018-05-31T22:39:51.978Z,15.80
2018-05-31T22:42:26.616Z,15.70
2018-05-31T22:45:00.965Z,15.60
2018-05-31T22:47:35.508Z,15.60
2018-05-31T22:50:09.264Z,15.60
2018-05-31T22:52:44.604Z,15.50
2018-05-31T22:55:18.933Z,15.40
2018-05-31T22:57:53.793Z,15.40
2018-05-31T23:00:27.569Z,15.40
2018-05-31T23:03:01.295Z,15.50
2018-05-31T23:05:35.883Z,15.60
2018-05-31T23:08:10.601Z,15.50
2018-05-31T23:10:48.115Z,15.50
2018-05-31T23:13:22.925Z,15.40
2018-05-31T23:15:56.939Z,15.50
2018-05-31T23:18:30.630Z,15.50
2018-05-31T23:21:04.485Z,15.50
2018-05-31T23:23:38.163Z,15.70
2018-05-31T23:26:13.003Z,15.70
2018-05-31T23:28:48.219Z,15.80
2018-05-31T23:31:22.031Z,15.70
2018-05-31T23:33:58.170Z,15.70
2018-05-31T23:36:32.825Z,15.80
2018-05-31T23:39:07.243Z,15.70
2018-05-31T23:41:41.761Z,15.60
2018-05-31T23:44:16.995Z,15.60
2018-05-31T23:46:51.811Z,15.60
2018-05-31T23:49:25.802Z,15.70
2018-05-31T23:51:59.926Z,15.70
2018-05-31T23:54:34.640Z,15.70
2018-05-31T23:57:08.470Z,15.70
2018-05-31T23:59:43.819Z,15.60
